createdAt,value
2023-03-22T00:03:03.197Z,998.43
2023-03-22T00:08:07.330Z,998.40
2023-03-22T00:13:11.503Z,998.30
2023-03-22T00:18:15.623Z,998.42
2023-03-22T00:23:19.841Z,998.43
2023-03-22T00:28:23.975Z,998.33
2023-03-22T00:33:28.156Z,998.42
2023-03-22T00:38:41.624Z,998.33
2023-03-22T00:43:36.477Z,998.21
2023-03-22T00:48:40.682Z,998.36
2023-03-22T00:53:43.626Z,998.26
2023-03-22T00:58:47.047Z,998.19
2023-03-22T01:03:49.381Z,997.94
2023-03-22T01:08:53.456Z,997.87
2023-03-22T01:13:57.648Z,997.74
2023-03-22T01:19:01.782Z,997.57
2023-03-22T01:24:05.963Z,997.40
2023-03-22T01:29:10.136Z,997.31
2023-03-22T01:34:14.271Z,997.22
2023-03-22T01:39:18.428Z,997.18
2023-03-22T01:44:22.582Z,997.00
2023-03-22T01:49:26.761Z,996.85
2023-03-22T01:54:30.929Z,996.71
2023-03-22T01:59:35.068Z,996.59
2023-03-22T02:04:39.393Z,996.47
2023-03-22T02:09:43.478Z,996.34
2023-03-22T02:14:47.588Z,996.26
2023-03-22T02:19:51.745Z,996.25
2023-03-22T02:24:55.895Z,996.13
2023-03-22T02:30:00.055Z,996.00
2023-03-22T02:35:04.205Z,995.90
2023-03-22T02:40:08.391Z,995.78
2023-03-22T02:45:12.524Z,995.60
2023-03-22T02:50:14.823Z,995.44
2023-03-22T02:55:18.969Z,995.23
2023-03-22T03:05:27.275Z,994.99
2023-03-22T03:10:31.515Z,994.74
2023-03-22T03:15:33.736Z,994.61
2023-03-22T03:20:38.369Z,994.52
2023-03-22T03:25:42.045Z,994.35
2023-03-22T03:30:46.204Z,994.24
2023-03-22T03:35:50.439Z,993.91
2023-03-22T03:40:54.530Z,993.71
2023-03-22T03:45:58.780Z,993.45
2023-03-22T03:51:02.848Z,993.23
2023-03-22T03:56:07.030Z,992.94
2023-03-22T04:01:11.177Z,992.93
2023-03-22T04:06:15.344Z,992.77
2023-03-22T04:11:19.491Z,992.71
2023-03-22T04:16:23.684Z,992.47
2023-03-22T04:21:27.851Z,992.25
2023-03-22T04:26:32.004Z,992.00
2023-03-22T04:31:36.160Z,991.94
2023-03-22T04:36:40.314Z,991.82
2023-03-22T04:41:44.449Z,991.67
2023-03-22T04:46:48.670Z,991.53
2023-03-22T04:51:52.800Z,991.53
2023-03-22T04:56:56.966Z,991.59
2023-03-22T05:01:59.346Z,991.74
2023-03-22T05:07:03.399Z,991.84
2023-03-22T05:12:05.648Z,991.93
2023-03-22T05:17:09.843Z,992.06
2023-03-22T05:22:13.968Z,991.94
2023-03-22T05:27:18.161Z,991.89
2023-03-22T05:32:22.273Z,991.97
2023-03-22T05:37:26.491Z,991.99
2023-03-22T05:42:30.611Z,992.09
2023-03-22T05:47:34.810Z,992.14
2023-03-22T05:52:38.986Z,992.31
2023-03-22T05:57:43.141Z,992.55
2023-03-22T06:02:47.394Z,992.69
2023-03-22T06:07:51.452Z,992.84
2023-03-22T06:12:55.630Z,992.93
2023-03-22T06:17:57.880Z,993.04
2023-03-22T06:23:02.070Z,993.18
2023-03-22T06:28:08.587Z,993.25
2023-03-22T06:33:10.379Z,993.41
2023-03-22T06:38:14.528Z,993.57
2023-03-22T06:43:18.694Z,993.85
2023-03-22T06:48:22.877Z,993.92
2023-03-22T06:53:27.012Z,994.15
2023-03-22T06:58:29.297Z,994.20
2023-03-22T07:03:33.437Z,994.56
2023-03-22T07:08:37.628Z,994.80
2023-03-22T07:13:41.778Z,994.96
2023-03-22T07:18:45.908Z,995.02
2023-03-22T07:23:50.085Z,995.08
2023-03-22T07:28:54.214Z,995.19
2023-03-22T07:33:58.412Z,995.31
2023-03-22T07:39:02.565Z,995.42
2023-03-22T07:44:17.190Z,995.52
2023-03-22T07:49:10.899Z,995.61
2023-03-22T07:54:30.518Z,995.69
2023-03-22T07:59:19.272Z,995.95
2023-03-22T08:04:23.401Z,996.19
2023-03-22T08:09:27.689Z,996.31
2023-03-22T08:14:36.624Z,996.53
2023-03-22T08:19:36.169Z,996.67
2023-03-22T08:24:39.986Z,996.87
2023-03-22T08:29:44.193Z,996.85
2023-03-22T08:34:48.326Z,997.00
2023-03-22T08:39:52.506Z,997.10
2023-03-22T08:44:54.862Z,997.15
2023-03-22T08:49:58.938Z,997.18
2023-03-22T08:55:01.157Z,997.31
2023-03-22T09:00:05.359Z,997.33
2023-03-22T09:05:09.521Z,997.44
2023-03-22T09:10:11.804Z,997.29
2023-03-22T09:15:16.052Z,997.30
2023-03-22T09:20:20.086Z,997.17
2023-03-22T09:25:24.273Z,997.47
2023-03-22T09:30:28.415Z,997.36
2023-03-22T09:35:32.570Z,997.20
2023-03-22T09:40:36.765Z,997.36
2023-03-22T09:45:41.178Z,997.44
2023-03-22T09:50:45.056Z,997.48
2023-03-22T09:55:49.185Z,997.33
2023-03-22T10:00:53.518Z,997.34
2023-03-22T10:05:57.534Z,997.62
2023-03-22T10:11:01.706Z,997.52
2023-03-22T10:16:05.865Z,997.53
2023-03-22T10:21:10.019Z,997.56
2023-03-22T10:26:14.173Z,997.55
2023-03-22T10:31:18.342Z,997.69
2023-03-22T10:36:22.482Z,997.76
2023-03-22T10:41:26.690Z,997.69
2023-03-22T10:46:30.820Z,997.76
2023-03-22T10:51:34.986Z,997.85
2023-03-22T10:56:37.266Z,997.83
2023-03-22T11:01:41.463Z,997.95
2023-03-22T11:11:47.870Z,997.91
2023-03-22T11:16:50.181Z,997.78
2023-03-22T11:21:54.271Z,997.89
2023-03-22T11:26:58.423Z,997.86
2023-03-22T11:32:02.607Z,997.81
2023-03-22T11:37:06.776Z,997.74
2023-03-22T11:42:10.921Z,997.96
2023-03-22T11:47:15.088Z,997.93
2023-03-22T11:52:19.256Z,997.81
2023-03-22T11:57:23.415Z,997.83
2023-03-22T12:02:27.594Z,997.71
2023-03-22T12:07:31.689Z,997.66
2023-03-22T12:12:35.837Z,997.65
2023-03-22T12:17:40.093Z,997.57
2023-03-22T12:22:44.187Z,997.41
2023-03-22T12:27:48.356Z,997.34
2023-03-22T12:32:52.614Z,997.29
2023-03-22T12:37:56.678Z,997.42
2023-03-22T12:43:01.068Z,997.51
2023-03-22T12:48:05.137Z,997.45
2023-03-22T12:53:09.183Z,997.61
2023-03-22T12:58:13.335Z,997.54
2023-03-22T13:03:15.813Z,997.54
2023-03-22T13:08:19.773Z,997.53
2023-03-22T13:13:23.883Z,997.47
2023-03-22T13:18:26.197Z,997.50
2023-03-22T13:23:30.433Z,997.52
2023-03-22T13:28:34.524Z,997.50
2023-03-22T13:33:38.754Z,997.48
2023-03-22T13:38:43.006Z,997.29
2023-03-22T13:43:46.984Z,997.41
2023-03-22T13:48:51.155Z,997.52
2023-03-22T13:58:59.457Z,997.39
2023-03-22T14:04:03.642Z,997.40
2023-03-22T14:09:07.771Z,997.42
2023-03-22T14:14:11.911Z,997.30
2023-03-22T14:19:16.110Z,997.33
2023-03-22T14:59:49.450Z,996.87
2023-03-22T15:04:53.563Z,996.73
2023-03-22T15:09:55.777Z,996.67
2023-03-22T15:14:59.960Z,996.62
2023-03-22T15:20:04.150Z,996.60
2023-03-22T15:25:08.285Z,996.58
2023-03-22T15:30:12.452Z,996.41
2023-03-22T15:35:16.611Z,996.57
2023-03-22T15:40:20.774Z,996.48
2023-03-22T15:45:25.032Z,996.36
2023-03-22T15:50:29.074Z,996.29
2023-03-22T15:55:33.332Z,996.18
2023-03-22T16:00:37.416Z,996.20
2023-03-22T16:05:41.785Z,996.23
2023-03-22T16:10:45.729Z,996.23
2023-03-22T16:15:50.073Z,996.22
2023-03-22T16:20:54.026Z,996.50
2023-03-22T16:25:58.234Z,996.32
2023-03-22T16:31:03.408Z,996.25
2023-03-22T16:36:08.522Z,996.15
2023-03-22T16:41:10.709Z,996.33
2023-03-22T16:46:14.891Z,996.34
2023-03-22T16:51:19.017Z,996.27
2023-03-22T16:56:21.286Z,996.27
2023-03-22T17:01:25.488Z,996.26
2023-03-22T17:06:27.696Z,996.18
2023-03-22T17:11:31.917Z,996.21
2023-03-22T17:16:36.090Z,996.15
2023-03-22T17:21:40.197Z,996.17
2023-03-22T17:26:44.384Z,996.07
2023-03-22T17:31:57.825Z,996.08
2023-03-22T17:36:52.705Z,996.11
2023-03-22T17:41:56.824Z,996.09
2023-03-22T17:47:34.722Z,996.01
2023-03-22T17:52:05.317Z,995.97
2023-03-22T18:02:16.246Z,996.01
2023-03-22T18:07:17.671Z,995.99
2023-03-22T18:12:21.792Z,996.00
2023-03-22T18:17:25.930Z,995.97
2023-03-22T18:22:30.138Z,995.90
2023-03-22T18:27:47.490Z,995.93
2023-03-22T18:32:56.616Z,995.89
2023-03-22T18:37:42.618Z,995.96
2023-03-22T18:42:48.687Z,995.96
2023-03-22T18:47:50.901Z,995.96
2023-03-22T18:57:57.348Z,995.79
2023-03-22T19:03:01.512Z,995.63
2023-03-22T19:13:09.889Z,995.58
2023-03-22T19:18:14.003Z,995.57
2023-03-22T19:23:18.163Z,995.51
2023-03-22T19:28:27.092Z,995.43
2023-03-22T19:33:39.771Z,995.35
2023-03-22T19:38:30.659Z,995.23
2023-03-22T19:43:34.797Z,995.20
2023-03-22T19:48:38.990Z,995.20
2023-03-22T19:54:14.092Z,995.13
2023-03-22T19:58:47.274Z,994.97
2023-03-22T20:03:51.507Z,994.93
2023-03-22T20:08:55.654Z,994.94
2023-03-22T20:19:03.945Z,994.61
2023-03-22T20:24:08.088Z,994.50
2023-03-22T20:29:12.288Z,994.40
2023-03-22T20:34:16.542Z,994.39
2023-03-22T20:39:20.690Z,994.21
2023-03-22T20:44:22.880Z,994.24
2023-03-22T20:49:26.985Z,994.17
2023-03-22T20:54:29.272Z,994.14
2023-03-22T20:59:33.469Z,994.07
2023-03-22T21:04:37.585Z,994.02
2023-03-22T21:09:41.717Z,993.90
2023-03-22T21:14:45.880Z,993.72
2023-03-22T21:19:50.075Z,993.67
2023-03-22T21:24:54.206Z,993.53
2023-03-22T21:29:58.398Z,993.35
2023-03-22T21:35:02.534Z,993.15
2023-03-22T21:40:06.707Z,992.94
2023-03-22T21:45:10.890Z,992.76
2023-03-22T21:50:15.043Z,992.55
2023-03-22T21:55:19.181Z,992.30
2023-03-22T22:00:23.331Z,992.07
2023-03-22T22:05:27.536Z,991.60
2023-03-22T22:10:31.682Z,991.13
2023-03-22T22:15:35.801Z,990.83
2023-03-22T22:20:39.998Z,990.54
2023-03-22T22:25:44.146Z,990.32
2023-03-22T22:30:48.321Z,990.11
2023-03-22T22:35:52.484Z,989.84
2023-03-22T22:40:54.740Z,989.62
2023-03-22T22:45:58.931Z,989.42
2023-03-22T22:51:01.193Z,989.44
2023-03-22T22:56:05.357Z,989.21
2023-03-22T23:01:09.475Z,988.94
2023-03-22T23:06:13.709Z,988.42
2023-03-22T23:11:17.811Z,987.74
2023-03-22T23:16:20.079Z,986.76
2023-03-22T23:21:24.229Z,985.30
2023-03-22T23:26:28.389Z,983.65
2023-03-22T23:31:32.537Z,981.77
2023-03-22T23:36:36.744Z,979.77
2023-03-22T23:41:40.906Z,978.18
2023-03-22T23:46:45.037Z,977.69
2023-03-22T23:51:49.178Z,977.76
2023-03-22T23:56:53.348Z,977.71
